Time;durP1;ratioP1;P1;durP2;ratioP2;P2;SDS_P1;SDS_P2;PMS_P1;PMS_P2;Temp;Humidity;BMP_temperature;BMP_pressure;BME280_temperature;BME280_humidity;BME280_pressure;Samples;Min_cycle;Max_cycle;Signal;HPM_P1;HPM_P2
2023/07/14 00:03:21;;;;;;;2.00;1.90;;;25.90;62.10;;;;;;222261;1251;25248;-54
2023/07/14 00:08:30;;;;;;;2.10;2.00;;;25.70;61.40;;;;;;222537;1248;24176;-54
2023/07/14 00:13:34;;;;;;;4.80;1.90;;;25.70;61.80;;;;;;222448;1254;22503;-55
2023/07/14 00:18:38;;;;;;;3.00;2.00;;;25.70;62.00;;;;;;222244;1254;22510;-53
2023/07/14 00:23:43;;;;;;;4.00;2.00;;;25.70;62.10;;;;;;222301;1249;22509;-53
2023/07/14 00:28:49;;;;;;;3.70;2.00;;;25.70;61.70;;;;;;222729;1254;22522;-52
2023/07/14 00:33:54;;;;;;;3.80;1.80;;;25.70;61.70;;;;;;222809;1245;22537;-51
2023/07/14 00:38:58;;;;;;;2.60;2.30;;;25.70;61.70;;;;;;222620;1247;24216;-53
2023/07/14 00:44:03;;;;;;;4.60;2.10;;;25.70;61.50;;;;;;224079;1254;22528;-54
2023/07/14 00:49:15;;;;;;;3.80;1.90;;;25.70;61.10;;;;;;223773;1248;23559;-54
2023/07/14 00:54:28;;;;;;;2.30;2.00;;;25.70;60.90;;;;;;222426;1257;22511;-55
2023/07/14 00:59:33;;;;;;;2.30;2.10;;;25.70;61.40;;;;;;222464;1263;24049;-55
2023/07/14 01:04:45;;;;;;;2.50;2.00;;;25.70;61.10;;;;;;222466;1254;22517;-55
2023/07/14 01:09:52;;;;;;;4.20;2.40;;;25.60;61.00;;;;;;222621;1247;22504;-53
2023/07/14 01:14:58;;;;;;;2.50;2.30;;;25.60;60.90;;;;;;222709;1250;22630;-54
2023/07/14 01:20:08;;;;;;;3.40;2.10;;;25.60;60.80;;;;;;222421;1247;25208;-55
2023/07/14 01:25:36;;;;;;;5.40;2.40;;;25.60;60.90;;;;;;222488;1244;23815;-54
2023/07/14 01:30:41;;;;;;;4.80;2.40;;;25.60;60.70;;;;;;222271;1245;24368;-54
2023/07/14 01:35:56;;;;;;;2.30;2.00;;;25.50;60.50;;;;;;222580;1254;22511;-55
2023/07/14 01:41:04;;;;;;;2.60;1.80;;;25.50;60.50;;;;;;222533;1264;25478;-54
2023/07/14 01:46:18;;;;;;;6.40;2.20;;;25.50;60.50;;;;;;222695;1247;22543;-55
2023/07/14 01:51:23;;;;;;;3.90;2.20;;;25.50;60.20;;;;;;222506;1254;22511;-56
2023/07/14 01:56:30;;;;;;;2.70;2.20;;;25.50;59.90;;;;;;222777;1254;24394;-52
2023/07/14 02:01:36;;;;;;;2.60;2.10;;;25.40;59.60;;;;;;222442;1254;25262;-54
2023/07/14 02:06:40;;;;;;;3.70;2.30;;;25.40;59.70;;;;;;222443;1253;22586;-52
2023/07/14 02:11:49;;;;;;;3.60;2.20;;;25.40;59.30;;;;;;222354;1244;24245;-53
2023/07/14 02:16:59;;;;;;;2.90;2.20;;;25.40;59.30;;;;;;222179;1251;172083;-54
2023/07/14 02:22:04;;;;;;;2.30;1.80;;;25.40;58.90;;;;;;222608;1261;22531;-53
2023/07/14 02:27:11;;;;;;;3.20;2.10;;;25.40;59.10;;;;;;222546;1263;24428;-53
2023/07/14 02:32:28;;;;;;;3.90;2.30;;;25.30;59.00;;;;;;222723;1254;25764;-54
2023/07/14 02:38:06;;;;;;;2.90;2.10;;;25.30;58.90;;;;;;222438;1267;23873;-52
2023/07/14 02:43:13;;;;;;;3.60;1.70;;;25.30;58.60;;;;;;230339;1266;22152;-53
2023/07/14 02:48:39;;;;;;;4.60;2.50;;;25.30;58.00;;;;;;228153;1263;23903;-52
2023/07/14 02:53:44;;;;;;;1.90;1.80;;;25.40;57.60;;;;;;225002;1254;25496;-53
2023/07/14 02:58:49;;;;;;;2.70;2.00;;;25.40;57.60;;;;;;222429;1261;24351;-49
2023/07/14 03:03:54;;;;;;;3.60;2.00;;;25.30;58.10;;;;;;222224;1260;25239;-54
2023/07/14 03:08:58;;;;;;;5.90;4.60;;;25.20;58.10;;;;;;222405;1261;23886;-53
2023/07/14 03:14:04;;;;;;;5.70;3.90;;;25.20;57.80;;;;;;222411;1266;25252;-55
2023/07/14 03:19:08;;;;;;;4.40;3.90;;;25.20;58.10;;;;;;222343;1257;25320;-55
2023/07/14 03:24:13;;;;;;;3.80;3.50;;;25.10;58.40;;;;;;222380;1257;24401;-53
2023/07/14 03:29:17;;;;;;;3.70;3.30;;;25.10;58.20;;;;;;222311;1254;22511;-49
2023/07/14 03:34:22;;;;;;;3.80;3.10;;;25.10;58.50;;;;;;222382;1257;22508;-54
2023/07/14 03:39:30;;;;;;;3.60;2.40;;;25.10;58.60;;;;;;222689;1257;22755;-52
2023/07/14 03:44:34;;;;;;;4.20;2.60;;;25.10;58.30;;;;;;222733;1266;25581;-53
2023/07/14 03:49:38;;;;;;;3.40;2.50;;;25.10;58.30;;;;;;222457;1255;25389;-52
2023/07/14 03:54:43;;;;;;;4.30;3.00;;;25.10;58.00;;;;;;222449;1265;22626;-54
2023/07/14 03:59:47;;;;;;;3.80;2.70;;;25.10;58.30;;;;;;222593;1254;23799;-55
2023/07/14 04:04:51;;;;;;;2.70;2.40;;;25.00;58.10;;;;;;222205;1254;25321;-54
2023/07/14 04:09:55;;;;;;;3.80;2.60;;;25.00;58.30;;;;;;222584;1260;23135;-56
2023/07/14 04:14:59;;;;;;;2.50;2.30;;;25.00;58.20;;;;;;222422;1260;25242;-56
2023/07/14 04:20:05;;;;;;;4.10;2.70;;;25.00;58.10;;;;;;222342;1260;22582;-52
2023/07/14 04:25:10;;;;;;;8.10;2.50;;;25.00;58.30;;;;;;222350;1262;23174;-51
2023/07/14 04:30:14;;;;;;;12.80;3.50;;;25.00;58.50;;;;;;224767;1267;22515;-51
2023/07/14 04:35:18;;;;;;;3.20;2.00;;;25.00;57.90;;;;;;222238;1264;25143;-55
2023/07/14 04:40:22;;;;;;;3.70;1.90;;;25.10;58.10;;;;;;222392;1268;25265;-55
2023/07/14 04:45:44;;;;;;;3.60;2.40;;;25.00;58.10;;;;;;222848;1261;22507;-54
2023/07/14 04:50:48;;;;;;;3.80;2.20;;;25.00;58.10;;;;;;222352;1261;23928;-55
2023/07/14 04:55:52;;;;;;;2.70;2.10;;;25.00;58.30;;;;;;222547;1257;22557;-48
2023/07/14 05:00:57;;;;;;;3.00;2.20;;;24.90;58.50;;;;;;222271;1254;25337;-54
2023/07/14 05:06:01;;;;;;;6.20;2.20;;;24.90;58.30;;;;;;222157;1267;24157;-53
2023/07/14 05:11:05;;;;;;;2.30;2.00;;;25.00;58.40;;;;;;222009;1266;22688;-54
2023/07/14 05:16:09;;;;;;;4.30;2.30;;;25.00;58.70;;;;;;222232;1255;22596;-53
2023/07/14 05:21:14;;;;;;;5.10;2.20;;;25.00;58.30;;;;;;222596;1254;25379;-53
2023/07/14 05:26:19;;;;;;;3.50;2.50;;;25.00;58.00;;;;;;222439;1263;22574;-53
2023/07/14 05:31:23;;;;;;;5.80;2.30;;;25.00;58.00;;;;;;222289;1262;25564;-54
2023/07/14 05:36:27;;;;;;;4.20;2.90;;;24.90;58.30;;;;;;222270;1257;23238;-56
2023/07/14 05:41:32;;;;;;;5.30;2.70;;;25.00;58.20;;;;;;222426;1266;23925;-53
2023/07/14 05:46:36;;;;;;;8.20;3.00;;;25.00;58.40;;;;;;222637;1269;22640;-54
2023/07/14 05:51:40;;;;;;;5.30;2.50;;;24.90;58.40;;;;;;222518;1263;22512;-51
2023/07/14 05:56:44;;;;;;;4.70;2.90;;;24.90;58.10;;;;;;222133;1263;24090;-55
2023/07/14 06:01:49;;;;;;;3.50;2.40;;;24.90;58.20;;;;;;222422;1263;24171;-55
2023/07/14 06:06:53;;;;;;;3.80;2.50;;;24.80;57.90;;;;;;222239;1263;24190;-56
2023/07/14 06:11:58;;;;;;;8.90;2.90;;;24.70;57.90;;;;;;222720;1264;24565;-52
2023/07/14 06:17:04;;;;;;;7.70;2.80;;;24.80;57.90;;;;;;222558;1264;26478;-54
2023/07/14 06:22:08;;;;;;;7.80;2.40;;;24.80;57.90;;;;;;223137;1267;22511;-53
2023/07/14 06:27:12;;;;;;;5.90;2.50;;;24.90;58.20;;;;;;222378;1264;25154;-54
2023/07/14 06:32:16;;;;;;;3.50;2.10;;;24.90;57.70;;;;;;222449;1264;25252;-55
2023/07/14 06:37:20;;;;;;;3.90;2.00;;;25.00;57.80;;;;;;222324;1263;24239;-55
2023/07/14 06:42:24;;;;;;;2.40;2.10;;;25.00;57.90;;;;;;222287;1254;24052;-54
2023/07/14 06:47:32;;;;;;;2.30;2.10;;;25.00;58.00;;;;;;222345;1252;22505;-54
2023/07/14 06:52:38;;;;;;;3.00;1.70;;;25.00;58.00;;;;;;222372;1268;22625;-55
2023/07/14 06:57:42;;;;;;;5.10;2.30;;;25.00;58.00;;;;;;222298;1264;24187;-55
2023/07/14 07:02:47;;;;;;;5.70;2.20;;;25.10;58.00;;;;;;222309;1263;24260;-51
2023/07/14 07:07:53;;;;;;;2.90;1.90;;;25.10;57.90;;;;;;222318;1269;25207;-54
2023/07/14 07:12:57;;;;;;;2.20;2.00;;;25.10;57.90;;;;;;222363;1261;22970;-55
2023/07/14 07:18:03;;;;;;;3.10;1.90;;;25.10;57.90;;;;;;222029;1261;24173;-53
2023/07/14 07:23:08;;;;;;;2.70;1.80;;;25.10;57.90;;;;;;222443;1263;22522;-53
2023/07/14 07:28:12;;;;;;;2.60;2.10;;;25.10;57.50;;;;;;222556;1266;22511;-55
2023/07/14 07:33:16;;;;;;;1.90;1.80;;;25.10;58.00;;;;;;222446;1264;22586;-53
2023/07/14 07:38:21;;;;;;;5.00;2.00;;;25.10;57.50;;;;;;222022;1266;22639;-53
2023/07/14 07:43:27;;;;;;;4.90;1.90;;;25.10;57.30;;;;;;222146;1266;24183;-54
2023/07/14 07:48:32;;;;;;;5.00;1.80;;;25.10;57.40;;;;;;222562;1264;24673;-53
2023/07/14 07:53:36;;;;;;;1.70;1.50;;;25.10;57.30;;;;;;222598;1254;24433;-52
2023/07/14 07:58:42;;;;;;;1.80;1.60;;;25.20;57.20;;;;;;223009;1261;25224;-52
2023/07/14 08:03:47;;;;;;;1.80;1.70;;;25.20;56.90;;;;;;222599;1264;22512;-51
2023/07/14 08:08:53;;;;;;;5.90;1.90;;;25.20;56.70;;;;;;222257;1260;24357;-46
2023/07/14 08:13:59;;;;;;;1.70;1.60;;;25.20;56.50;;;;;;222425;1254;24185;-49
2023/07/14 08:19:03;;;;;;;2.60;2.10;;;25.30;56.40;;;;;;222483;1254;22524;-49
2023/07/14 08:24:09;;;;;;;1.70;1.40;;;25.20;56.70;;;;;;222301;1250;22508;-48
2023/07/14 08:29:13;;;;;;;4.60;1.80;;;25.10;56.80;;;;;;222124;1257;25606;-47
2023/07/14 08:34:17;;;;;;;2.50;1.70;;;25.00;55.40;;;;;;222211;1268;22655;-51
2023/07/14 08:39:21;;;;;;;3.50;2.50;;;25.10;55.50;;;;;;222225;1260;24240;-49
2023/07/14 08:44:46;;;;;;;8.90;7.30;;;25.10;54.90;;;;;;222235;1266;25412;-46
2023/07/14 08:50:03;;;;;;;6.60;6.00;;;25.00;54.70;;;;;;222371;1264;22518;-47
2023/07/14 08:55:15;;;;;;;6.90;6.30;;;25.00;54.70;;;;;;222407;1264;22534;-48
2023/07/14 09:00:33;;;;;;;9.40;8.50;;;25.10;54.60;;;;;;222555;1255;23259;-49
2023/07/14 09:05:45;;;;;;;8.20;7.40;;;25.20;54.60;;;;;;222463;1264;23555;-48
2023/07/14 09:10:51;;;;;;;7.60;5.70;;;25.30;54.50;;;;;;222665;1266;22533;-48
2023/07/14 09:15:56;;;;;;;7.10;5.20;;;25.30;53.90;;;;;;222363;1264;22518;-47
2023/07/14 09:21:31;;;;;;;5.80;5.30;;;25.20;54.60;;;;;;222042;1267;24474;-47
2023/07/14 09:26:41;;;;;;;4.50;4.20;;;25.40;55.20;;;;;;222527;1257;24190;-47
2023/07/14 09:32:17;;;;;;;3.70;3.20;;;25.50;55.80;;;;;;222332;1268;22512;-50
2023/07/14 09:37:33;;;;;;;3.80;3.30;;;25.40;57.30;;;;;;222395;1264;22629;-47
2023/07/14 09:42:39;;;;;;;4.20;3.30;;;25.40;55.40;;;;;;222212;1268;22601;-50
2023/07/14 09:47:49;;;;;;;6.20;3.20;;;25.40;56.00;;;;;;222167;1261;22995;-51
2023/07/14 09:52:56;;;;;;;2.80;2.60;;;25.40;54.80;;;;;;222263;1268;24326;-49
2023/07/14 09:58:02;;;;;;;4.80;3.20;;;25.50;53.50;;;;;;222410;1260;26702;-49
2023/07/14 10:03:16;;;;;;;4.30;2.90;;;25.40;53.80;;;;;;222090;1254;24222;-49
2023/07/14 10:08:35;;;;;;;4.70;2.80;;;25.40;54.00;;;;;;222655;1260;24242;-49
2023/07/14 10:13:44;;;;;;;3.30;3.00;;;25.50;52.50;;;;;;222465;1254;22514;-51
2023/07/14 10:18:50;;;;;;;7.50;2.50;;;25.60;53.10;;;;;;222392;1254;22677;-48
2023/07/14 10:24:14;;;;;;;3.20;2.30;;;25.60;53.60;;;;;;222401;1264;22609;-50
2023/07/14 10:29:20;;;;;;;2.90;2.60;;;25.60;54.00;;;;;;222382;1254;22640;-49
2023/07/14 10:34:47;;;;;;;3.60;2.50;;;25.70;54.00;;;;;;222544;1252;25328;-50
2023/07/14 10:39:57;;;;;;;2.50;2.30;;;25.70;53.70;;;;;;222337;1264;22580;-51
2023/07/14 10:45:02;;;;;;;2.50;2.30;;;25.70;54.00;;;;;;222584;1256;22930;-53
2023/07/14 10:50:35;;;;;;;2.60;2.40;;;25.80;53.50;;;;;;222517;1261;25330;-48
2023/07/14 10:55:43;;;;;;;2.60;2.30;;;25.80;53.70;;;;;;222540;1254;24028;-49
2023/07/14 11:00:54;;;;;;;2.50;2.30;;;25.90;53.60;;;;;;222443;1254;25207;-49
2023/07/14 11:06:04;;;;;;;2.90;2.30;;;25.80;53.60;;;;;;222343;1248;22565;-45
2023/07/14 11:11:11;;;;;;;2.40;2.20;;;25.80;53.70;;;;;;222422;1257;24185;-48
2023/07/14 11:16:27;;;;;;;3.20;2.80;;;25.90;53.60;;;;;;222468;1263;24166;-48
2023/07/14 11:21:50;;;;;;;2.70;2.40;;;25.90;53.40;;;;;;222403;1254;22657;-48
2023/07/14 11:27:04;;;;;;;2.60;2.40;;;26.00;53.20;;;;;;222619;1260;25447;-51
2023/07/14 11:32:17;;;;;;;3.50;3.20;;;26.00;53.10;;;;;;222264;1260;22758;-50
2023/07/14 11:37:46;;;;;;;3.20;2.80;;;26.00;52.40;;;;;;222239;1264;22537;-50
2023/07/14 11:42:58;;;;;;;3.00;2.60;;;26.00;53.10;;;;;;222591;1252;26637;-51
2023/07/14 11:48:03;;;;;;;2.50;2.30;;;26.10;53.30;;;;;;222380;1268;25683;-49
2023/07/14 11:53:21;;;;;;;2.60;2.30;;;26.20;53.30;;;;;;222534;1267;22509;-50
2023/07/14 11:58:28;;;;;;;4.20;2.60;;;26.10;53.20;;;;;;222407;1263;25268;-50
2023/07/14 12:03:37;;;;;;;2.70;2.50;;;26.10;53.50;;;;;;222567;1260;22518;-51
2023/07/14 12:08:42;;;;;;;2.80;2.40;;;26.20;53.50;;;;;;222257;1256;22521;-48
2023/07/14 12:13:51;;;;;;;2.90;2.70;;;26.30;53.30;;;;;;222354;1263;24739;-50
2023/07/14 12:19:02;;;;;;;3.30;2.50;;;26.20;53.20;;;;;;222333;1268;24748;-49
2023/07/14 12:24:16;;;;;;;;;;;26.10;53.30;;;;;;222353;1260;22517;-52
2023/07/14 12:29:22;;;;;;;2.90;2.40;;;26.00;53.40;;;;;;222518;1261;22787;-52
2023/07/14 12:34:33;;;;;;;1.90;1.70;;;26.10;52.70;;;;;;222592;1262;24053;-52
2023/07/14 12:39:50;;;;;;;2.20;2.00;;;26.20;52.70;;;;;;222141;1266;24358;-52
2023/07/14 12:44:56;;;;;;;2.60;2.10;;;26.20;52.00;;;;;;222317;1264;22537;-47
2023/07/14 12:50:01;;;;;;;4.50;2.20;;;26.20;52.30;;;;;;222148;1260;22608;-49
2023/07/14 12:55:12;;;;;;;2.50;2.20;;;26.20;52.50;;;;;;222391;1253;22668;-53
2023/07/14 13:00:21;;;;;;;2.70;2.50;;;26.20;51.70;;;;;;222488;1256;22510;-52
2023/07/14 13:05:33;;;;;;;2.50;2.00;;;26.30;52.50;;;;;;222361;1261;24221;-49
2023/07/14 13:10:43;;;;;;;1.60;1.50;;;26.30;52.10;;;;;;222249;1267;24186;-49
2023/07/14 13:15:50;;;;;;;1.90;1.80;;;26.30;51.50;;;;;;222318;1261;24227;-51
2023/07/14 13:20:58;;;;;;;2.00;1.80;;;26.30;51.40;;;;;;222455;1251;25376;-53
2023/07/14 13:26:05;;;;;;;2.50;2.00;;;26.30;51.80;;;;;;222455;1263;24225;-52
2023/07/14 13:31:17;;;;;;;1.80;1.60;;;26.30;51.20;;;;;;222392;1260;24047;-52
2023/07/14 13:36:25;;;;;;;1.80;1.70;;;26.30;51.40;;;;;;222334;1267;22587;-49
2023/07/14 13:41:30;;;;;;;1.70;1.50;;;26.40;51.70;;;;;;222413;1253;22633;-52
2023/07/14 13:46:38;;;;;;;1.90;1.80;;;26.40;51.80;;;;;;222394;1260;22630;-53
2023/07/14 13:51:42;;;;;;;2.90;2.50;;;26.40;51.80;;;;;;222227;1260;22782;-49
2023/07/14 13:56:47;;;;;;;2.20;2.00;;;26.50;51.50;;;;;;222478;1267;22623;-51
2023/07/14 14:01:51;;;;;;;1.80;1.70;;;26.50;51.70;;;;;;222360;1260;22793;-50
2023/07/14 14:06:56;;;;;;;4.00;2.10;;;26.50;51.90;;;;;;222135;1263;22511;-52
2023/07/14 14:12:03;;;;;;;5.50;2.10;;;26.60;52.00;;;;;;222233;1260;25910;-52
2023/07/14 14:17:39;;;;;;;3.70;2.00;;;26.50;52.00;;;;;;222327;1263;197286;-51
2023/07/14 14:22:47;;;;;;;6.90;2.20;;;26.50;52.00;;;;;;222509;1266;25661;-49
2023/07/14 14:27:51;;;;;;;2.40;1.60;;;26.60;52.40;;;;;;222498;1260;24183;-53
2023/07/14 14:32:59;;;;;;;6.20;2.00;;;26.70;52.20;;;;;;222420;1254;22515;-51
2023/07/14 14:38:25;;;;;;;3.80;1.60;;;26.60;52.60;;;;;;222861;1263;24716;-52
2023/07/14 14:43:49;;;;;;;4.40;2.40;;;26.50;53.20;;;;;;222463;1260;23876;-52
2023/07/14 14:48:54;;;;;;;2.00;1.80;;;26.50;53.70;;;;;;222528;1253;22640;-48
2023/07/14 14:53:58;;;;;;;5.10;2.40;;;26.60;54.00;;;;;;222532;1256;22643;-52
2023/07/14 14:59:09;;;;;;;8.30;3.10;;;26.60;54.90;;;;;;222519;1260;22517;-51
2023/07/14 15:04:17;;;;;;;4.10;2.20;;;26.70;55.70;;;;;;222378;1266;24340;-51
2023/07/14 15:09:22;;;;;;;4.90;2.70;;;26.80;54.90;;;;;;222481;1260;24218;-49
2023/07/14 15:14:35;;;;;;;5.50;2.90;;;26.80;55.60;;;;;;222553;1267;24237;-46
2023/07/14 15:19:40;;;;;;;5.60;3.00;;;27.00;58.60;;;;;;222504;1253;22539;-52
2023/07/14 15:24:46;;;;;;;4.60;3.00;;;26.80;56.20;;;;;;222275;1263;22517;-50
2023/07/14 15:29:50;;;;;;;6.10;2.60;;;26.80;56.50;;;;;;222817;1260;25540;-49
2023/07/14 15:34:55;;;;;;;6.10;3.10;;;26.70;56.20;;;;;;222539;1260;22530;-52
2023/07/14 15:39:59;;;;;;;10.80;3.60;;;26.60;56.80;;;;;;222471;1246;26746;-52
2023/07/14 15:45:04;;;;;;;12.70;3.30;;;26.60;57.00;;;;;;222542;1260;22832;-55
2023/07/14 15:50:09;;;;;;;10.20;2.80;;;26.70;57.20;;;;;;222718;1256;26627;-55
2023/07/14 15:55:16;;;;;;;7.70;2.80;;;26.70;56.80;;;;;;222356;1268;22602;-52
2023/07/14 16:00:21;;;;;;;15.50;3.70;;;26.70;56.80;;;;;;222710;1253;24261;-50
2023/07/14 16:05:26;;;;;;;10.50;3.40;;;26.80;57.00;;;;;;222531;1253;23294;-52
2023/07/14 16:10:35;;;;;;;8.60;2.70;;;26.90;56.50;;;;;;222236;1253;22499;-54
2023/07/14 16:15:42;;;;;;;11.60;3.70;;;26.90;56.40;;;;;;222366;1254;24173;-55
2023/07/14 16:20:47;;;;;;;10.10;2.90;;;27.00;56.60;;;;;;222364;1256;22982;-50
2023/07/14 16:25:51;;;;;;;8.60;3.10;;;26.90;57.20;;;;;;222549;1254;24212;-55
2023/07/14 16:30:57;;;;;;;11.30;3.10;;;26.80;56.60;;;;;;222544;1263;26558;-52
2023/07/14 16:36:01;;;;;;;7.70;2.90;;;26.80;56.50;;;;;;222233;1260;23061;-50
2023/07/14 16:41:09;;;;;;;8.50;2.80;;;26.90;56.30;;;;;;222911;1266;25258;-47
2023/07/14 16:46:14;;;;;;;5.30;2.80;;;26.90;56.00;;;;;;226960;1266;22519;-53
2023/07/14 16:51:25;;;;;;;6.60;3.00;;;27.00;56.10;;;;;;222285;1268;22553;-51
2023/07/14 16:56:31;;;;;;;4.10;2.40;;;26.90;55.80;;;;;;222805;1264;24565;-52
2023/07/14 17:01:36;;;;;;;3.40;2.60;;;26.80;56.00;;;;;;222448;1254;24733;-52
2023/07/14 17:06:41;;;;;;;4.80;2.50;;;26.80;56.00;;;;;;222481;1255;22585;-51
2023/07/14 17:11:56;;;;;;;4.40;2.30;;;26.70;55.80;;;;;;222589;1256;22532;-53
2023/07/14 17:17:03;;;;;;;4.80;2.10;;;26.70;56.00;;;;;;222764;1264;25542;-53
2023/07/14 17:22:12;;;;;;;2.80;2.20;;;26.70;55.50;;;;;;222542;1253;24250;-56
2023/07/14 17:27:17;;;;;;;2.90;2.30;;;26.70;55.20;;;;;;222604;1263;22510;-53
2023/07/14 17:32:21;;;;;;;6.50;2.30;;;26.60;55.40;;;;;;222448;1263;23924;-51
2023/07/14 17:37:28;;;;;;;6.00;3.60;;;26.70;55.00;;;;;;222481;1254;22696;-52
2023/07/14 17:42:33;;;;;;;3.70;2.70;;;26.70;55.30;;;;;;223049;1257;25429;-51
2023/07/14 17:47:39;;;;;;;2.40;2.20;;;26.70;54.60;;;;;;222102;1269;22534;-51
2023/07/14 17:52:52;;;;;;;3.80;2.50;;;26.80;54.30;;;;;;221929;1256;24183;-52
2023/07/14 17:57:57;;;;;;;3.10;2.00;;;26.70;54.30;;;;;;221948;1266;22517;-51
2023/07/14 18:03:03;;;;;;;3.40;2.30;;;26.70;54.20;;;;;;221917;1258;22563;-52
2023/07/14 18:08:10;;;;;;;3.40;2.50;;;26.60;55.10;;;;;;221905;1256;22518;-49
2023/07/14 18:13:37;;;;;;;3.60;2.10;;;26.60;54.90;;;;;;221669;1271;22977;-52
2023/07/14 18:18:43;;;;;;;2.90;2.60;;;26.60;55.00;;;;;;222356;1264;22523;-53
2023/07/14 18:23:47;;;;;;;2.80;2.00;;;26.60;55.30;;;;;;222621;1254;23099;-53
2023/07/14 18:28:51;;;;;;;4.20;2.40;;;26.50;55.40;;;;;;222424;1254;24279;-54
2023/07/14 18:33:56;;;;;;;4.00;2.50;;;26.50;55.00;;;;;;222456;1259;22548;-54
2023/07/14 18:39:00;;;;;;;3.10;2.00;;;26.50;55.00;;;;;;222473;1261;22511;-50
2023/07/14 18:44:12;;;;;;;2.60;1.90;;;26.50;54.70;;;;;;222393;1268;22507;-52
2023/07/14 18:49:21;;;;;;;2.50;2.20;;;26.50;54.80;;;;;;222545;1254;22517;-54
2023/07/14 18:54:27;;;;;;;2.80;2.50;;;26.50;55.20;;;;;;222577;1256;22531;-54
2023/07/14 18:59:31;;;;;;;4.20;3.00;;;26.50;54.80;;;;;;222395;1256;24208;-53
2023/07/14 19:04:35;;;;;;;3.30;2.30;;;26.40;54.80;;;;;;222537;1253;22526;-52
2023/07/14 19:09:40;;;;;;;2.50;2.30;;;26.40;54.80;;;;;;222502;1263;22504;-51
2023/07/14 19:14:44;;;;;;;2.50;2.30;;;26.40;55.00;;;;;;222527;1253;25466;-52
2023/07/14 19:19:49;;;;;;;2.50;2.30;;;26.40;54.60;;;;;;222393;1263;24212;-52
2023/07/14 19:24:55;;;;;;;2.60;2.40;;;26.40;54.60;;;;;;222815;1254;22506;-54
2023/07/14 19:30:11;;;;;;;2.30;2.10;;;26.40;55.00;;;;;;222666;1257;25591;-50
2023/07/14 19:35:18;;;;;;;3.00;2.40;;;26.30;54.60;;;;;;222558;1260;24228;-52
2023/07/14 19:40:25;;;;;;;2.40;2.20;;;26.30;54.60;;;;;;222492;1268;25320;-49
2023/07/14 19:45:29;;;;;;;2.60;2.40;;;26.30;54.60;;;;;;222513;1261;23265;-52
2023/07/14 19:50:35;;;;;;;2.40;2.20;;;26.30;54.90;;;;;;222451;1268;22518;-51
2023/07/14 19:55:43;;;;;;;2.70;2.20;;;26.30;54.90;;;;;;222467;1254;24160;-51
2023/07/14 20:00:49;;;;;;;2.70;2.50;;;26.20;54.40;;;;;;222610;1253;22532;-49
2023/07/14 20:05:56;;;;;;;4.10;2.80;;;26.30;54.50;;;;;;222732;1263;22761;-52
2023/07/14 20:11:03;;;;;;;3.30;2.70;;;26.20;54.40;;;;;;222552;1254;22524;-52
2023/07/14 20:16:13;;;;;;;3.60;2.30;;;26.20;54.40;;;;;;222593;1266;25290;-53
2023/07/14 20:21:25;;;;;;;3.30;2.90;;;26.20;54.40;;;;;;222481;1259;22609;-51
2023/07/14 20:26:29;;;;;;;3.60;2.60;;;26.20;54.40;;;;;;222580;1266;24331;-53
2023/07/14 20:31:33;;;;;;;3.40;2.60;;;26.20;54.40;;;;;;222409;1254;23090;-52
2023/07/14 20:36:38;;;;;;;3.10;2.80;;;26.20;54.60;;;;;;222508;1268;22548;-52
2023/07/14 20:41:43;;;;;;;3.20;2.80;;;26.20;54.50;;;;;;222471;1261;22592;-53
2023/07/14 20:46:48;;;;;;;5.20;3.00;;;26.10;54.40;;;;;;222575;1268;25683;-54
2023/07/14 20:51:54;;;;;;;4.10;2.70;;;26.10;54.50;;;;;;222356;1263;24055;-51
2023/07/14 20:56:58;;;;;;;3.20;2.90;;;26.10;54.50;;;;;;222429;1266;24090;-52
2023/07/14 21:02:09;;;;;;;3.40;3.10;;;26.10;54.50;;;;;;222534;1259;24160;-53
2023/07/14 21:07:14;;;;;;;4.40;2.90;;;26.10;54.50;;;;;;222633;1261;22586;-54
2023/07/14 21:12:23;;;;;;;3.40;3.00;;;26.00;54.80;;;;;;222474;1257;22652;-54
2023/07/14 21:17:27;;;;;;;2.90;2.70;;;26.00;54.40;;;;;;222389;1263;22518;-54
2023/07/14 21:22:31;;;;;;;3.80;3.10;;;26.00;54.40;;;;;;222614;1260;22508;-51
2023/07/14 21:27:35;;;;;;;4.90;3.20;;;26.00;54.40;;;;;;222539;1260;22504;-52
2023/07/14 21:32:40;;;;;;;4.90;3.20;;;26.00;54.40;;;;;;222431;1260;25265;-50
2023/07/14 21:37:44;;;;;;;3.40;3.10;;;26.00;54.50;;;;;;222588;1267;22513;-52
2023/07/14 21:42:51;;;;;;;3.20;2.90;;;26.00;54.40;;;;;;222680;1268;24186;-49
2023/07/14 21:47:55;;;;;;;3.40;3.10;;;25.90;54.30;;;;;;222730;1264;22498;-52
2023/07/14 21:53:12;;;;;;;3.50;3.20;;;25.90;54.30;;;;;;222714;1267;24156;-53
2023/07/14 21:58:26;;;;;;;3.90;3.30;;;25.90;54.30;;;;;;222942;1244;23912;-49
2023/07/14 22:03:30;;;;;;;4.80;3.30;;;25.80;54.30;;;;;;222743;1254;22632;-53
2023/07/14 22:08:34;;;;;;;3.40;3.00;;;25.90;54.20;;;;;;222653;1257;23054;-52
2023/07/14 22:13:39;;;;;;;4.60;3.40;;;25.80;54.30;;;;;;222520;1268;25632;-52
2023/07/14 22:18:45;;;;;;;3.90;2.90;;;25.80;54.20;;;;;;222503;1254;22525;-52
2023/07/14 22:23:52;;;;;;;3.80;3.40;;;25.70;54.50;;;;;;222397;1259;24193;-53
2023/07/14 22:28:56;;;;;;;2.80;2.60;;;25.70;54.20;;;;;;222298;1254;22509;-54
2023/07/14 22:34:06;;;;;;;3.30;3.00;;;25.80;54.60;;;;;;222622;1261;22644;-53
2023/07/14 22:39:13;;;;;;;3.20;2.90;;;25.70;54.10;;;;;;222610;1260;25341;-52
2023/07/14 22:44:17;;;;;;;3.30;3.00;;;25.70;54.10;;;;;;222592;1266;23702;-57
2023/07/14 22:49:22;;;;;;;6.40;3.30;;;25.70;54.10;;;;;;222248;1262;22563;-53
2023/07/14 22:54:26;;;;;;;3.90;3.10;;;25.70;54.40;;;;;;222505;1268;22649;-51
2023/07/14 22:59:30;;;;;;;4.60;3.50;;;25.70;54.10;;;;;;222485;1263;22697;-53
2023/07/14 23:04:34;;;;;;;3.50;3.20;;;25.70;54.50;;;;;;222542;1260;22501;-50
2023/07/14 23:09:39;;;;;;;3.60;3.10;;;25.70;54.50;;;;;;222378;1263;22554;-51
2023/07/14 23:14:44;;;;;;;3.20;2.90;;;25.60;54.50;;;;;;222312;1264;24379;-51
2023/07/14 23:19:48;;;;;;;2.90;2.70;;;25.60;54.20;;;;;;222460;1263;24248;-53
2023/07/14 23:24:52;;;;;;;3.00;2.70;;;25.60;54.10;;;;;;222057;1269;22606;-50
2023/07/14 23:29:57;;;;;;;4.20;3.00;;;25.60;54.00;;;;;;222306;1265;22636;-50
2023/07/14 23:35:01;;;;;;;3.30;2.90;;;25.60;54.00;;;;;;222583;1254;24389;-51
2023/07/14 23:40:06;;;;;;;4.00;2.90;;;25.60;54.10;;;;;;222459;1266;22626;-54
2023/07/14 23:45:22;;;;;;;3.50;3.10;;;25.60;54.10;;;;;;222236;1269;23152;-53
2023/07/14 23:50:29;;;;;;;3.30;3.00;;;25.60;54.10;;;;;;222197;1268;25307;-51
2023/07/14 23:55:33;;;;;;;2.50;2.30;;;25.50;54.00;;;;;;222430;1268;24224;-51
